Terminal Aerodrome Forecast
Issued by NWS

Home | Current Version | Previous Version | Text Only | Print | Product List | Glossary On
Versions: 1 2 3 4 5 6 7 8 9 10 11 12 13 14 15 16 17 18 19
000
FTUS41 KCAR 260700 AAA
TAFBHB
TAF AMD
KBHB 260730Z 2608/2706 22004KT P6SM SKC
      TEMPO 2608/2610 4SM BR
     FM261700 22011KT P6SM SCT070
     FM262300 20009KT P6SM BKN070
      AMD LTD TO CLD VIS AND WIND=

USA.gov is the U.S. government's official web portal to all federal, state and local government web resources and services.